This is the latest recevied weather packets stored in our database for station/object DG2GGP-11. If no packets are shown the sender has not sent any weather packets the latest 10 day(s).
| Time | Temp. | Humidity | Pressure | Rain* | Wind** | Luminosity | Snow |
|---|---|---|---|---|---|---|---|
| 1777840157 | 13.33° C | 58% | 1016 hPa | 0 mm | - | 0 W/m² | - |
| 1777839557 | 13.33° C | 58% | 1016 hPa | 0 mm | - | 0 W/m² | - |
| 1777838957 | 13.33° C | 59% | 1016 hPa | 0 mm | - | 0 W/m² | - |
| 1777838357 | 13.33° C | 56% | 1015.9 hPa | 0 mm | - | 0 W/m² | - |
| 1777837757 | 13.33° C | 57% | 1015.9 hPa | 0 mm | - | 0 W/m² | - |
| 1777837157 | 13.89° C | 56% | 1015.7 hPa | 0 mm | - | 0 W/m² | - |
| 1777836556 | 13.89° C | 54% | 1015.7 hPa | 0 mm | - | 0 W/m² | - |
| 1777835957 | 14.44° C | 53% | 1015.6 hPa | 0 mm | - | 0 W/m² | - |
| 1777835356 | 14.44° C | 54% | 1015.5 hPa | 0 mm | - | 0 W/m² | - |
| 1777834757 | 14.44° C | 54% | 1015.3 hPa | 0 mm | - | 0 W/m² | - |
| 1777834156 | 14.44° C | 53% | 1015.2 hPa | 0 mm | - | 0 W/m² | - |
| 1777833556 | 14.44° C | 53% | 1015.2 hPa | 0 mm | - | 0 W/m² | - |
| 1777832957 | 14.44° C | 54% | 1015.3 hPa | 0 mm | - | 0 W/m² | - |
| 1777832357 | 14.44° C | 54% | 1015.2 hPa | 0 mm | - | 0 W/m² | - |
| 1777831756 | 14.44° C | 54% | 1015.2 hPa | 0 mm | - | 0 W/m² | - |
| 1777831156 | 14.44° C | 56% | 1015.1 hPa | 0 mm | - | 0 W/m² | - |
| 1777830556 | 14.44° C | 58% | 1015.2 hPa | 0 mm | - | 1 W/m² | - |
| 1777829957 | 14.44° C | 60% | 1015.2 hPa | 0 mm | - | 1 W/m² | - |
| 1777829357 | 14.44° C | 61% | 1015.6 hPa | 0 mm | - | 1 W/m² | - |
| 1777828757 | 14.44° C | 58% | 1016 hPa | 0 mm | - | 1 W/m² | - |
| 1777828157 | 15.56° C | 53% | 1015.7 hPa | 0 mm | - | 1 W/m² | - |
| 1777827557 | 16.67° C | 47% | 1015.6 hPa | 0 mm | - | 2 W/m² | - |
| 1777826957 | 17.22° C | 43% | 1015.5 hPa | 0 mm | - | 2 W/m² | - |
| 1777826357 | 17.22° C | 42% | 1015.3 hPa | 0 mm | - | 4 W/m² | - |
| 1777825757 | 17.78° C | 42% | 1015.3 hPa | 0 mm | - | 4 W/m² | - |
* Rain latest hour (hover to see other rain measurements)
** Current wind speed in m/s (hover to see current wind gust speed)